createdAt,value
2019-03-13T00:00:32.069Z,0
2019-03-13T00:01:32.146Z,0
2019-03-13T00:02:32.144Z,0
2019-03-13T00:03:32.086Z,0
2019-03-13T00:04:32.142Z,0
2019-03-13T00:05:32.141Z,0
2019-03-13T00:06:32.165Z,0
2019-03-13T00:07:32.243Z,0
2019-03-13T00:08:32.072Z,0
2019-03-13T00:09:32.115Z,0
2019-03-13T00:10:32.717Z,0
2019-03-13T00:11:32.161Z,0
2019-03-13T00:12:32.077Z,0
2019-03-13T00:13:32.077Z,0
2019-03-13T00:14:32.076Z,0
2019-03-13T00:15:32.174Z,0
2019-03-13T00:16:32.151Z,0
2019-03-13T00:17:32.143Z,0
2019-03-13T00:18:32.081Z,0
2019-03-13T00:19:32.081Z,0
2019-03-13T00:20:32.161Z,0
2019-03-13T00:21:32.153Z,0
2019-03-13T00:22:32.141Z,0
2019-03-13T00:23:32.158Z,0
2019-03-13T00:24:32.154Z,0
2019-03-13T00:25:32.154Z,0
2019-03-13T00:26:32.167Z,0
2019-03-13T00:27:32.102Z,0
2019-03-13T00:28:32.109Z,0
2019-03-13T00:29:32.160Z,0
2019-03-13T00:30:32.114Z,0
2019-03-13T00:31:32.159Z,0
2019-03-13T00:32:32.108Z,0
2019-03-13T00:33:32.190Z,0
2019-03-13T00:34:32.175Z,0
2019-03-13T00:35:32.162Z,0
2019-03-13T00:36:32.098Z,0
2019-03-13T00:37:32.023Z,0
2019-03-13T00:38:32.139Z,0
2019-03-13T00:39:32.040Z,0
2019-03-13T00:40:32.034Z,0
2019-03-13T00:41:32.070Z,0
2019-03-13T00:42:32.149Z,0
2019-03-13T00:43:32.083Z,0
2019-03-13T00:44:32.026Z,0
2019-03-13T00:45:32.085Z,0
2019-03-13T00:46:32.098Z,0
2019-03-13T00:47:32.089Z,0
2019-03-13T00:48:32.162Z,0
2019-03-13T00:49:32.162Z,0
2019-03-13T00:50:32.093Z,0
2019-03-13T00:51:32.093Z,0
2019-03-13T00:52:32.166Z,0
2019-03-13T00:53:32.095Z,0
2019-03-13T00:54:32.165Z,0
2019-03-13T00:55:32.164Z,0
2019-03-13T00:56:32.097Z,0
2019-03-13T00:57:32.173Z,0
2019-03-13T00:58:32.177Z,0
2019-03-13T00:59:32.183Z,0
2019-03-13T01:00:32.179Z,0
2019-03-13T01:01:32.181Z,0
2019-03-13T01:02:32.181Z,0
2019-03-13T01:03:32.072Z,0
2019-03-13T01:04:32.185Z,0
2019-03-13T01:05:32.125Z,0
2019-03-13T01:06:32.116Z,0
2019-03-13T01:07:32.124Z,0
2019-03-13T01:08:32.114Z,0
2019-03-13T01:09:32.193Z,0
2019-03-13T01:10:32.190Z,0
2019-03-13T01:11:32.128Z,0
2019-03-13T01:12:32.118Z,0
2019-03-13T01:13:32.196Z,0
2019-03-13T01:14:32.189Z,0
2019-03-13T01:15:32.221Z,0
2019-03-13T01:16:32.124Z,0
2019-03-13T01:17:32.214Z,0
2019-03-13T01:18:32.183Z,0
2019-03-13T01:19:32.127Z,0
2019-03-13T01:20:32.112Z,0
2019-03-13T01:21:32.120Z,0
2019-03-13T01:22:32.188Z,0
2019-03-13T01:23:32.120Z,0
2019-03-13T01:24:32.271Z,0
2019-03-13T01:25:32.194Z,0
2019-03-13T01:26:32.126Z,0
2019-03-13T01:27:32.198Z,0
2019-03-13T01:28:32.129Z,0
2019-03-13T01:29:32.215Z,0
2019-03-13T01:30:32.131Z,0
2019-03-13T01:31:32.194Z,0
2019-03-13T01:32:32.132Z,0
2019-03-13T01:33:32.146Z,0
2019-03-13T01:34:32.134Z,0
2019-03-13T01:35:32.132Z,0
2019-03-13T01:36:32.209Z,0
2019-03-13T01:37:32.206Z,0
2019-03-13T01:38:32.147Z,0
2019-03-13T01:39:32.138Z,0
2019-03-13T01:40:32.207Z,0
2019-03-13T01:41:32.219Z,0
2019-03-13T01:42:32.159Z,0
2019-03-13T01:43:32.213Z,0
2019-03-13T01:44:32.153Z,0
2019-03-13T01:45:32.216Z,0
2019-03-13T01:46:32.218Z,0
2019-03-13T01:47:32.217Z,0
2019-03-13T01:48:32.193Z,0
2019-03-13T01:49:32.152Z,0
2019-03-13T01:50:32.223Z,0
2019-03-13T01:51:32.283Z,0
2019-03-13T01:52:32.450Z,0
2019-03-13T01:53:32.149Z,0
2019-03-13T01:54:32.121Z,0
2019-03-13T01:55:32.221Z,0
2019-03-13T01:56:32.157Z,0
2019-03-13T01:57:32.166Z,0
2019-03-13T01:58:32.158Z,0
2019-03-13T01:59:32.221Z,0
2019-03-13T02:00:32.161Z,0
2019-03-13T02:01:32.115Z,0
2019-03-13T02:02:32.236Z,0
2019-03-13T02:03:32.223Z,0
2019-03-13T02:04:32.234Z,0
2019-03-13T02:05:32.225Z,0
2019-03-13T02:06:32.198Z,0
2019-03-13T02:07:32.224Z,0
2019-03-13T02:08:32.229Z,0
2019-03-13T02:09:32.228Z,0
2019-03-13T02:10:32.166Z,0
2019-03-13T02:11:32.161Z,0
2019-03-13T02:12:32.158Z,0
2019-03-13T02:13:32.177Z,0
2019-03-13T02:14:32.231Z,0
2019-03-13T02:15:32.234Z,0
2019-03-13T02:16:32.233Z,0
2019-03-13T02:17:32.243Z,0
2019-03-13T02:18:32.226Z,0
2019-03-13T02:19:32.229Z,0
2019-03-13T02:20:32.226Z,0
2019-03-13T02:21:32.167Z,0
2019-03-13T02:22:32.230Z,0
2019-03-13T02:23:32.157Z,0
2019-03-13T02:24:32.250Z,0
2019-03-13T02:25:32.158Z,0
2019-03-13T02:26:32.232Z,0
2019-03-13T02:27:32.159Z,0
2019-03-13T02:28:32.177Z,0
2019-03-13T02:29:32.192Z,0
2019-03-13T02:30:32.235Z,0
2019-03-13T02:31:32.268Z,0
2019-03-13T02:32:32.248Z,0
2019-03-13T02:33:32.175Z,0
2019-03-13T02:34:32.255Z,0
2019-03-13T02:35:32.206Z,0
2019-03-13T02:36:32.252Z,0
2019-03-13T02:37:32.180Z,0
2019-03-13T02:38:32.251Z,0
2019-03-13T02:39:32.266Z,0
2019-03-13T02:40:32.193Z,0
2019-03-13T02:41:32.262Z,0
2019-03-13T02:42:32.257Z,0
2019-03-13T02:43:32.287Z,0
2019-03-13T02:44:32.253Z,0
2019-03-13T02:45:32.239Z,0
2019-03-13T02:46:32.264Z,0
2019-03-13T02:47:32.210Z,0
2019-03-13T02:48:32.188Z,0
2019-03-13T02:49:32.264Z,0
2019-03-13T02:50:32.224Z,0
2019-03-13T02:51:32.192Z,0
2019-03-13T02:52:32.196Z,0
2019-03-13T02:53:32.190Z,0
2019-03-13T02:54:32.262Z,0
2019-03-13T02:55:32.263Z,0
2019-03-13T02:56:32.196Z,0
2019-03-13T02:57:32.192Z,0
2019-03-13T02:58:32.280Z,0
2019-03-13T02:59:32.202Z,0
2019-03-13T03:00:32.193Z,0
2019-03-13T03:01:32.194Z,0
2019-03-13T03:02:32.269Z,0
2019-03-13T03:03:32.268Z,0
2019-03-13T03:04:32.197Z,0
2019-03-13T03:05:32.282Z,0
2019-03-13T03:06:32.208Z,0
2019-03-13T03:07:32.269Z,0
2019-03-13T03:08:32.195Z,0
2019-03-13T03:09:32.263Z,0
2019-03-13T03:10:32.214Z,0
2019-03-13T03:11:32.275Z,0
2019-03-13T03:12:32.204Z,0
2019-03-13T03:13:32.197Z,0
2019-03-13T03:14:32.268Z,0
2019-03-13T03:15:32.197Z,0
2019-03-13T03:16:32.269Z,0
2019-03-13T03:17:32.272Z,0
2019-03-13T03:18:32.277Z,0
2019-03-13T03:19:32.205Z,0
2019-03-13T03:20:32.222Z,0
2019-03-13T03:21:32.339Z,0
2019-03-13T03:22:32.216Z,0
2019-03-13T03:23:32.275Z,0
2019-03-13T03:24:32.286Z,0
2019-03-13T03:25:32.277Z,0
2019-03-13T03:26:32.281Z,0
2019-03-13T03:27:32.219Z,0
2019-03-13T03:28:32.269Z,0
2019-03-13T03:29:32.279Z,0
2019-03-13T03:30:32.168Z,0
2019-03-13T03:31:32.250Z,0
2019-03-13T03:32:32.275Z,0
2019-03-13T03:33:32.170Z,0
2019-03-13T03:34:32.274Z,0
2019-03-13T03:35:32.159Z,0
2019-03-13T03:36:32.224Z,0
2019-03-13T03:37:32.186Z,0
2019-03-13T03:38:32.331Z,0
2019-03-13T03:39:32.296Z,0
2019-03-13T03:40:32.227Z,0
2019-03-13T03:41:32.226Z,0
2019-03-13T03:42:32.187Z,0
2019-03-13T03:43:40.163Z,0
2019-03-13T03:44:32.289Z,0
2019-03-13T03:45:32.247Z,0
2019-03-13T03:46:32.273Z,0
2019-03-13T03:47:32.240Z,0
2019-03-13T03:48:32.329Z,0
2019-03-13T03:49:32.225Z,0
2019-03-13T03:50:32.300Z,0
2019-03-13T03:51:32.295Z,0
2019-03-13T03:52:32.226Z,0
2019-03-13T03:53:32.297Z,0
2019-03-13T03:54:32.236Z,0
2019-03-13T03:55:32.300Z,0
2019-03-13T03:56:32.221Z,0
2019-03-13T03:57:32.308Z,0
2019-03-13T03:58:32.241Z,0
2019-03-13T03:59:32.275Z,0
2019-03-13T04:00:32.254Z,0
2019-03-13T04:01:32.318Z,0
2019-03-13T04:02:32.247Z,0
2019-03-13T04:03:32.325Z,0
2019-03-13T04:04:32.317Z,0
2019-03-13T04:05:32.252Z,0
2019-03-13T04:06:32.242Z,0
2019-03-13T04:07:32.247Z,0
2019-03-13T04:08:32.312Z,0
2019-03-13T04:09:32.246Z,0
2019-03-13T04:10:32.242Z,0
2019-03-13T04:11:32.341Z,0
2019-03-13T04:12:32.246Z,0
2019-03-13T04:13:32.320Z,0
2019-03-13T04:14:32.250Z,0
2019-03-13T04:15:32.351Z,0
2019-03-13T04:16:32.328Z,0
2019-03-13T04:17:32.256Z,0
2019-03-13T04:18:32.322Z,0
2019-03-13T04:19:32.323Z,0
2019-03-13T04:20:32.325Z,0
2019-03-13T04:21:32.330Z,0
2019-03-13T04:22:32.221Z,0
2019-03-13T04:23:32.259Z,0
2019-03-13T04:24:32.327Z,0
2019-03-13T04:25:32.268Z,0
2019-03-13T04:26:32.257Z,0
2019-03-13T04:27:32.256Z,0
2019-03-13T04:28:32.332Z,0
2019-03-13T04:29:32.261Z,0
2019-03-13T04:30:32.341Z,0
2019-03-13T04:31:32.330Z,0
2019-03-13T04:32:32.282Z,0
2019-03-13T04:33:32.272Z,0
2019-03-13T04:34:32.336Z,0
2019-03-13T04:35:32.341Z,0
2019-03-13T04:36:32.364Z,0
2019-03-13T04:37:32.308Z,0
2019-03-13T04:38:32.478Z,0
2019-03-13T04:39:32.302Z,0
2019-03-13T04:40:32.237Z,0
2019-03-13T04:41:32.339Z,0
2019-03-13T04:42:32.278Z,0
2019-03-13T04:43:32.349Z,0
2019-03-13T04:44:32.280Z,0
2019-03-13T04:45:32.340Z,0
2019-03-13T04:46:32.275Z,0
2019-03-13T04:47:32.237Z,0
2019-03-13T04:48:32.285Z,0
2019-03-13T04:49:32.273Z,0
2019-03-13T04:50:32.344Z,0
2019-03-13T04:51:32.277Z,0
2019-03-13T04:52:32.345Z,0
2019-03-13T04:53:32.351Z,0
2019-03-13T04:54:32.276Z,0
2019-03-13T04:55:32.235Z,0
2019-03-13T04:56:32.280Z,0
2019-03-13T04:57:32.289Z,0
2019-03-13T04:58:32.278Z,0
2019-03-13T04:59:32.355Z,0
2019-03-13T05:00:32.384Z,0
2019-03-13T05:01:32.279Z,0
2019-03-13T05:02:32.354Z,0
2019-03-13T05:03:32.408Z,0
2019-03-13T05:04:32.352Z,0
2019-03-13T05:05:32.296Z,0
2019-03-13T05:06:32.281Z,0
2019-03-13T05:07:32.296Z,0
2019-03-13T05:08:44.526Z,0
2019-03-13T05:09:32.363Z,0
2019-03-13T05:10:32.287Z,0
2019-03-13T05:11:32.365Z,0
2019-03-13T05:12:32.359Z,0
2019-03-13T05:13:32.313Z,0
2019-03-13T05:14:32.895Z,0
2019-03-13T05:15:32.307Z,0
2019-03-13T05:16:32.364Z,0
2019-03-13T05:17:32.372Z,0
2019-03-13T05:18:32.217Z,0
2019-03-13T05:19:32.286Z,0
2019-03-13T05:20:32.222Z,0
2019-03-13T05:21:32.238Z,0
2019-03-13T05:22:32.170Z,0
2019-03-13T05:23:32.351Z,0
2019-03-13T05:24:32.218Z,0
2019-03-13T05:25:32.265Z,0
2019-03-13T05:26:32.285Z,0
2019-03-13T05:27:32.268Z,0
2019-03-13T05:28:32.287Z,0
2019-03-13T05:29:32.365Z,0
2019-03-13T05:30:32.291Z,0
2019-03-13T05:31:32.364Z,0
2019-03-13T05:32:32.365Z,0
2019-03-13T05:33:32.366Z,0
2019-03-13T05:34:32.366Z,0
2019-03-13T05:35:32.388Z,0
2019-03-13T05:36:32.370Z,0
2019-03-13T05:37:32.297Z,0
2019-03-13T05:38:32.310Z,0
2019-03-13T05:39:32.317Z,0
2019-03-13T05:40:32.384Z,0
2019-03-13T05:41:32.378Z,0
2019-03-13T05:42:32.311Z,0
2019-03-13T05:43:32.279Z,0
2019-03-13T05:44:32.376Z,0
2019-03-13T05:45:32.386Z,0
2019-03-13T05:46:32.383Z,0
2019-03-13T05:47:32.311Z,0
2019-03-13T05:48:32.327Z,0
2019-03-13T05:49:32.315Z,0
2019-03-13T05:51:32.317Z,0
2019-03-13T05:52:32.331Z,0
2019-03-13T05:53:32.341Z,0
2019-03-13T05:54:32.399Z,0
2019-03-13T05:55:32.391Z,0
2019-03-13T05:56:32.339Z,0
2019-03-13T05:57:32.322Z,0
2019-03-13T05:58:32.287Z,0
2019-03-13T05:59:32.390Z,0
2019-03-13T06:00:32.326Z,0
2019-03-13T06:01:32.394Z,0
2019-03-13T06:02:32.404Z,0
2019-03-13T06:03:32.394Z,0
2019-03-13T06:04:32.423Z,0
2019-03-13T06:05:32.353Z,0
2019-03-13T06:06:32.404Z,0
2019-03-13T06:07:32.338Z,0
2019-03-13T06:08:32.349Z,0
2019-03-13T06:09:32.379Z,0
2019-03-13T06:10:32.332Z,0
2019-03-13T06:11:32.294Z,0
2019-03-13T06:12:32.318Z,0
2019-03-13T06:13:32.304Z,0
2019-03-13T06:14:32.391Z,0
2019-03-13T06:15:32.392Z,0
2019-03-13T06:16:32.383Z,0
2019-03-13T06:17:32.379Z,0
2019-03-13T06:18:32.259Z,0
2019-03-13T06:19:32.267Z,0
2019-03-13T06:20:32.325Z,0
2019-03-13T06:21:32.325Z,0
2019-03-13T06:22:32.352Z,0
2019-03-13T06:23:32.272Z,0
2019-03-13T06:24:32.304Z,0
2019-03-13T06:25:32.367Z,0
2019-03-13T06:26:32.368Z,0
2019-03-13T06:27:32.374Z,0
2019-03-13T06:28:32.403Z,0
2019-03-13T06:29:32.333Z,0
2019-03-13T06:30:32.400Z,0
2019-03-13T06:31:32.317Z,0
2019-03-13T06:32:32.401Z,0
2019-03-13T06:33:32.333Z,0
2019-03-13T06:34:32.376Z,0
2019-03-13T06:35:32.364Z,0
2019-03-13T06:36:32.336Z,0
2019-03-13T06:37:32.319Z,0
2019-03-13T06:38:32.322Z,0
2019-03-13T06:39:32.319Z,0
2019-03-13T06:40:32.398Z,0
2019-03-13T06:41:32.404Z,0
2019-03-13T06:42:32.291Z,0
2019-03-13T06:43:32.309Z,0
2019-03-13T06:44:32.311Z,0
2019-03-13T06:45:32.318Z,0
2019-03-13T06:46:32.409Z,0
2019-03-13T06:47:32.347Z,16
2019-03-13T06:48:32.323Z,15
2019-03-13T06:49:32.424Z,17
2019-03-13T06:50:32.356Z,17
2019-03-13T06:51:32.356Z,18
2019-03-13T06:52:32.357Z,22
2019-03-13T06:53:32.426Z,21
2019-03-13T06:54:32.442Z,20
2019-03-13T06:55:32.365Z,24
2019-03-13T06:56:32.370Z,23
2019-03-13T06:57:32.359Z,17
2019-03-13T06:58:32.427Z,16
2019-03-13T06:59:32.378Z,20
2019-03-13T07:00:32.401Z,18
2019-03-13T07:01:32.380Z,21
2019-03-13T07:02:32.404Z,22
2019-03-13T07:03:32.379Z,21
2019-03-13T07:04:32.301Z,20
2019-03-13T07:05:32.382Z,22
2019-03-13T07:06:32.358Z,27
2019-03-13T07:07:32.421Z,28
2019-03-13T07:08:32.328Z,27
2019-03-13T07:09:32.440Z,29
2019-03-13T07:10:32.378Z,33
2019-03-13T07:11:32.369Z,37
2019-03-13T07:12:32.441Z,42
2019-03-13T07:13:32.375Z,44
2019-03-13T07:14:32.371Z,44
2019-03-13T07:15:35.698Z,43
2019-03-13T07:16:32.374Z,45
2019-03-13T07:17:32.377Z,43
2019-03-13T07:18:32.451Z,48
2019-03-13T07:19:32.353Z,56
2019-03-13T07:20:32.352Z,55
2019-03-13T07:21:32.335Z,51
2019-03-13T07:22:32.445Z,48
2019-03-13T07:23:32.347Z,47
2019-03-13T07:24:32.446Z,42
2019-03-13T07:25:32.442Z,38
2019-03-13T07:26:32.390Z,40
2019-03-13T07:27:32.451Z,42
2019-03-13T07:28:32.448Z,44
2019-03-13T07:29:32.389Z,46
2019-03-13T07:30:32.371Z,53
2019-03-13T07:31:32.382Z,48
2019-03-13T07:32:32.401Z,41
2019-03-13T07:33:32.387Z,40
2019-03-13T07:34:32.359Z,43
2019-03-13T07:35:32.375Z,42
2019-03-13T07:36:32.319Z,52
2019-03-13T07:37:32.316Z,57
2019-03-13T07:38:32.315Z,56
2019-03-13T07:39:32.412Z,61
2019-03-13T07:40:32.393Z,62
2019-03-13T07:41:35.513Z,56
2019-03-13T07:42:32.400Z,53
2019-03-13T07:43:32.471Z,54
2019-03-13T07:44:32.414Z,64
2019-03-13T07:45:32.468Z,68
2019-03-13T07:46:32.465Z,64
2019-03-13T07:47:32.479Z,58
2019-03-13T07:48:32.399Z,55
2019-03-13T07:49:32.431Z,54
2019-03-13T07:50:32.371Z,59
2019-03-13T07:51:32.469Z,70
2019-03-13T07:52:32.957Z,79
2019-03-13T07:53:32.430Z,83
2019-03-13T07:54:32.454Z,81
2019-03-13T07:55:32.377Z,93
2019-03-13T07:56:32.397Z,109
2019-03-13T07:57:32.392Z,123
2019-03-13T07:58:32.380Z,138
2019-03-13T07:59:32.436Z,130
2019-03-13T08:00:32.381Z,113
2019-03-13T08:01:32.407Z,110
2019-03-13T08:02:32.393Z,118
2019-03-13T08:03:32.435Z,121
2019-03-13T08:04:32.465Z,121
2019-03-13T08:05:32.381Z,107
2019-03-13T08:06:32.412Z,109
2019-03-13T08:07:32.383Z,127
2019-03-13T08:08:32.468Z,148
2019-03-13T08:09:32.421Z,151
2019-03-13T08:10:32.481Z,148
2019-03-13T08:11:32.446Z,152
2019-03-13T08:12:32.481Z,149
2019-03-13T08:13:32.483Z,144
2019-03-13T08:14:32.483Z,155
2019-03-13T08:15:32.418Z,166
2019-03-13T08:16:32.482Z,167
2019-03-13T08:17:32.416Z,174
2019-03-13T08:18:32.483Z,219
2019-03-13T08:19:32.484Z,248
2019-03-13T08:20:32.454Z,278
2019-03-13T08:21:32.489Z,301
2019-03-13T08:22:32.422Z,240
2019-03-13T08:23:32.494Z,214
2019-03-13T08:24:32.501Z,181
2019-03-13T08:25:32.424Z,140
2019-03-13T08:26:32.502Z,107
2019-03-13T08:27:32.431Z,130
2019-03-13T08:28:32.440Z,153
2019-03-13T08:29:32.369Z,161
2019-03-13T08:30:32.415Z,217
2019-03-13T08:31:32.403Z,243
2019-03-13T08:32:32.513Z,184
2019-03-13T08:33:32.371Z,187
2019-03-13T08:34:32.487Z,237
2019-03-13T08:35:32.417Z,270
2019-03-13T08:36:32.492Z,313
2019-03-13T08:37:32.404Z,315
2019-03-13T08:38:32.494Z,277
2019-03-13T08:39:32.433Z,273
2019-03-13T08:40:32.502Z,275
2019-03-13T08:41:32.508Z,275
2019-03-13T08:42:32.438Z,267
2019-03-13T08:43:32.406Z,286
2019-03-13T08:44:32.506Z,294
2019-03-13T08:45:32.444Z,282
2019-03-13T08:46:32.513Z,294
2019-03-13T08:47:32.510Z,297
2019-03-13T08:48:32.511Z,325
2019-03-13T08:49:32.445Z,333
2019-03-13T08:50:32.507Z,280
2019-03-13T08:51:32.507Z,261
2019-03-13T08:52:32.450Z,237
2019-03-13T08:53:32.442Z,224
2019-03-13T08:54:32.509Z,224
2019-03-13T08:55:32.442Z,229
2019-03-13T08:56:32.512Z,213
2019-03-13T08:57:32.458Z,207
2019-03-13T08:58:32.513Z,203
2019-03-13T08:59:32.466Z,220
2019-03-13T09:00:32.450Z,192
2019-03-13T09:01:32.526Z,193
2019-03-13T09:02:32.475Z,221
2019-03-13T09:03:32.436Z,203
2019-03-13T09:04:32.520Z,267
2019-03-13T09:05:32.528Z,291
2019-03-13T09:06:32.456Z,321
2019-03-13T09:07:32.529Z,369
2019-03-13T09:08:32.451Z,375
2019-03-13T09:09:32.419Z,297
2019-03-13T09:10:32.478Z,257
2019-03-13T09:11:32.443Z,233
2019-03-13T09:12:32.506Z,234
2019-03-13T09:13:32.453Z,253
2019-03-13T09:14:32.435Z,272
2019-03-13T09:15:32.399Z,315
2019-03-13T09:16:32.533Z,334
2019-03-13T09:17:32.448Z,357
2019-03-13T09:18:32.482Z,390
2019-03-13T09:19:32.446Z,503
2019-03-13T09:20:32.458Z,430
2019-03-13T09:21:33.642Z,421
2019-03-13T09:22:32.452Z,387
2019-03-13T09:23:32.523Z,345
2019-03-13T09:24:32.410Z,382
2019-03-13T09:25:32.461Z,412
2019-03-13T09:26:32.457Z,373
2019-03-13T09:27:32.488Z,412
2019-03-13T09:28:32.465Z,363
2019-03-13T09:29:32.655Z,396
2019-03-13T09:30:32.510Z,361
2019-03-13T09:31:32.494Z,430
2019-03-13T09:32:32.529Z,400
2019-03-13T09:33:32.528Z,427
2019-03-13T09:34:32.538Z,240
2019-03-13T09:35:32.444Z,342
2019-03-13T09:36:32.421Z,321
2019-03-13T09:37:32.533Z,274
2019-03-13T09:38:32.463Z,302
2019-03-13T09:39:32.523Z,353
2019-03-13T09:40:32.522Z,412
2019-03-13T09:41:32.469Z,422
2019-03-13T09:42:32.442Z,438
2019-03-13T09:43:32.525Z,765
2019-03-13T09:44:32.510Z,381
2019-03-13T09:45:32.407Z,324
2019-03-13T09:46:32.542Z,271
2019-03-13T09:47:32.499Z,258
2019-03-13T09:48:32.534Z,262
2019-03-13T09:49:32.549Z,257
2019-03-13T09:50:32.497Z,252
2019-03-13T09:51:32.781Z,241
2019-03-13T09:52:32.563Z,225
2019-03-13T09:53:32.551Z,255
2019-03-13T09:54:32.488Z,345
2019-03-13T09:55:32.495Z,475
2019-03-13T09:56:32.493Z,368
2019-03-13T09:57:32.557Z,311
2019-03-13T09:58:32.487Z,197
2019-03-13T09:59:42.746Z,169
2019-03-13T10:00:32.487Z,147
2019-03-13T10:01:32.556Z,156
2019-03-13T10:02:32.564Z,181
2019-03-13T10:03:32.495Z,181
2019-03-13T10:04:32.558Z,167
2019-03-13T10:05:32.560Z,172
2019-03-13T10:06:32.562Z,184
2019-03-13T10:07:32.563Z,175
2019-03-13T10:08:32.495Z,183
2019-03-13T10:09:32.567Z,185
2019-03-13T10:10:32.575Z,224
2019-03-13T10:11:32.500Z,233
2019-03-13T10:12:32.571Z,258
2019-03-13T10:13:32.500Z,306
2019-03-13T10:14:32.569Z,392
2019-03-13T10:15:32.572Z,477
2019-03-13T10:16:32.505Z,421
2019-03-13T10:17:32.579Z,317
2019-03-13T10:18:32.611Z,316
2019-03-13T10:19:32.548Z,305
2019-03-13T10:20:32.581Z,305
2019-03-13T10:21:32.585Z,318
2019-03-13T10:22:32.511Z,382
2019-03-13T10:23:32.521Z,415
2019-03-13T10:24:32.579Z,411
2019-03-13T10:25:32.506Z,396
2019-03-13T10:26:32.575Z,348
2019-03-13T10:27:32.513Z,326
2019-03-13T10:28:32.517Z,346
2019-03-13T10:29:32.583Z,347
2019-03-13T10:30:32.514Z,345
2019-03-13T10:31:32.591Z,348
2019-03-13T10:32:32.584Z,365
2019-03-13T10:33:32.592Z,287
2019-03-13T10:34:32.580Z,312
2019-03-13T10:35:32.518Z,329
2019-03-13T10:36:32.589Z,203
2019-03-13T10:37:32.519Z,367
2019-03-13T10:38:32.481Z,326
2019-03-13T10:39:32.587Z,346
2019-03-13T10:40:32.520Z,347
2019-03-13T10:41:32.585Z,335
2019-03-13T10:42:32.593Z,420
2019-03-13T10:43:32.525Z,403
2019-03-13T10:44:32.592Z,373
2019-03-13T10:45:32.523Z,458
2019-03-13T10:46:32.643Z,443
2019-03-13T10:47:32.526Z,296
2019-03-13T10:48:32.529Z,284
2019-03-13T10:49:32.527Z,372
2019-03-13T10:50:32.568Z,382
2019-03-13T10:51:32.529Z,367
2019-03-13T10:52:32.595Z,304
2019-03-13T10:53:32.561Z,318
2019-03-13T10:54:32.604Z,372
2019-03-13T10:55:32.597Z,507
2019-03-13T10:56:32.539Z,330
2019-03-13T10:57:32.609Z,348
2019-03-13T10:58:32.570Z,302
2019-03-13T10:59:32.498Z,384
2019-03-13T11:00:32.516Z,242
2019-03-13T11:01:32.502Z,208
2019-03-13T11:02:32.596Z,297
2019-03-13T11:03:32.557Z,333
2019-03-13T11:04:32.591Z,326
2019-03-13T11:05:32.559Z,331
2019-03-13T11:06:32.515Z,387
2019-03-13T11:07:32.538Z,375
2019-03-13T11:08:32.551Z,441
2019-03-13T11:09:32.528Z,387
2019-03-13T11:10:32.535Z,325
2019-03-13T11:11:32.516Z,348
2019-03-13T11:12:32.577Z,586
2019-03-13T11:13:32.520Z,410
2019-03-13T11:14:32.609Z,305
2019-03-13T11:15:32.502Z,356
2019-03-13T11:16:32.532Z,1102
2019-03-13T11:17:32.608Z,627
2019-03-13T11:18:32.603Z,668
2019-03-13T11:19:32.616Z,1253
2019-03-13T11:20:32.615Z,1297
2019-03-13T11:21:32.548Z,954
2019-03-13T11:22:32.617Z,832
2019-03-13T11:23:32.552Z,1011
2019-03-13T11:24:32.619Z,701
2019-03-13T11:25:32.618Z,951
2019-03-13T11:26:32.619Z,802
2019-03-13T11:27:32.553Z,487
2019-03-13T11:28:32.625Z,459
2019-03-13T11:29:32.563Z,477
2019-03-13T11:30:32.560Z,500
2019-03-13T11:31:32.626Z,365
2019-03-13T11:32:32.623Z,275
2019-03-13T11:33:32.627Z,258
2019-03-13T11:34:32.621Z,192
2019-03-13T11:35:32.626Z,142
2019-03-13T11:36:35.004Z,136
2019-03-13T11:37:32.629Z,118
2019-03-13T11:38:32.635Z,118
2019-03-13T11:39:32.573Z,121
2019-03-13T11:40:32.559Z,118
2019-03-13T11:41:32.573Z,121
2019-03-13T11:42:32.628Z,130
2019-03-13T11:43:32.628Z,134
2019-03-13T11:44:32.565Z,137
2019-03-13T11:45:32.643Z,145
2019-03-13T11:46:32.568Z,134
2019-03-13T11:47:41.839Z,137
2019-03-13T11:48:32.579Z,132
2019-03-13T11:49:32.648Z,125
2019-03-13T11:50:32.751Z,114
2019-03-13T11:51:32.648Z,103
2019-03-13T11:52:32.576Z,98
2019-03-13T11:53:32.650Z,105
2019-03-13T11:54:32.643Z,123
2019-03-13T11:55:32.578Z,119
2019-03-13T11:56:32.637Z,108
2019-03-13T11:57:32.642Z,98
2019-03-13T11:58:32.644Z,100
2019-03-13T11:59:32.649Z,107
2019-03-13T12:00:32.624Z,120
2019-03-13T12:01:44.902Z,138
2019-03-13T12:02:32.577Z,149
2019-03-13T12:03:32.577Z,147
2019-03-13T12:04:32.580Z,199
2019-03-13T12:05:32.601Z,243
2019-03-13T12:06:32.550Z,291
2019-03-13T12:07:32.574Z,328
2019-03-13T12:08:32.557Z,363
2019-03-13T12:09:32.632Z,384
2019-03-13T12:10:32.650Z,375
2019-03-13T12:11:32.590Z,397
2019-03-13T12:12:32.654Z,486
2019-03-13T12:13:32.652Z,611
2019-03-13T12:14:32.652Z,685
2019-03-13T12:15:32.593Z,993
2019-03-13T12:16:32.681Z,623
2019-03-13T12:17:32.588Z,667
2019-03-13T12:18:32.661Z,488
2019-03-13T12:19:32.594Z,369
2019-03-13T12:20:32.603Z,372
2019-03-13T12:21:32.663Z,329
2019-03-13T12:22:32.617Z,278
2019-03-13T12:23:32.659Z,280
2019-03-13T12:24:32.666Z,340
2019-03-13T12:25:32.627Z,292
2019-03-13T12:26:32.676Z,222
2019-03-13T12:27:32.663Z,226
2019-03-13T12:28:32.617Z,289
2019-03-13T12:29:32.664Z,302
2019-03-13T12:30:32.601Z,276
2019-03-13T12:31:32.672Z,252
2019-03-13T12:32:32.680Z,254
2019-03-13T12:33:35.267Z,277
2019-03-13T12:34:32.607Z,239
2019-03-13T12:35:32.638Z,222
2019-03-13T12:36:32.673Z,221
2019-03-13T12:37:32.607Z,204
2019-03-13T12:38:32.603Z,185
2019-03-13T12:39:32.678Z,189
2019-03-13T12:40:32.653Z,217
2019-03-13T12:41:32.632Z,186
2019-03-13T12:42:32.653Z,189
2019-03-13T12:43:32.572Z,194
2019-03-13T12:44:32.580Z,163
2019-03-13T12:45:32.587Z,126
2019-03-13T12:46:32.654Z,119
2019-03-13T12:47:32.568Z,119
2019-03-13T12:48:32.656Z,146
2019-03-13T12:49:32.566Z,165
2019-03-13T12:50:34.247Z,155
2019-03-13T12:51:32.568Z,162
2019-03-13T12:52:32.582Z,174
2019-03-13T12:53:32.616Z,175
2019-03-13T12:54:32.578Z,147
2019-03-13T12:55:32.615Z,133
2019-03-13T12:56:32.615Z,129
2019-03-13T12:57:32.573Z,139
2019-03-13T12:58:32.541Z,157
2019-03-13T12:59:32.577Z,182
2019-03-13T13:00:32.681Z,190
2019-03-13T13:01:32.594Z,190
2019-03-13T13:02:32.611Z,166
2019-03-13T13:03:32.683Z,166
2019-03-13T13:04:32.613Z,158
2019-03-13T13:05:32.684Z,154
2019-03-13T13:06:32.579Z,135
2019-03-13T13:07:32.618Z,132
2019-03-13T13:08:32.688Z,175
2019-03-13T13:09:32.622Z,186
2019-03-13T13:10:32.692Z,185
2019-03-13T13:11:32.704Z,185
2019-03-13T13:12:32.626Z,194
2019-03-13T13:13:32.707Z,225
2019-03-13T13:14:32.694Z,303
2019-03-13T13:15:32.702Z,344
2019-03-13T13:16:32.633Z,323
2019-03-13T13:17:32.700Z,299
2019-03-13T13:18:32.700Z,274
2019-03-13T13:19:32.702Z,255
2019-03-13T13:20:32.631Z,255
2019-03-13T13:21:32.699Z,277
2019-03-13T13:22:32.633Z,305
2019-03-13T13:23:32.853Z,299
2019-03-13T13:24:32.638Z,275
2019-03-13T13:25:32.701Z,273
2019-03-13T13:26:32.640Z,269
2019-03-13T13:27:32.707Z,271
2019-03-13T13:28:32.638Z,277
2019-03-13T13:29:32.710Z,287
2019-03-13T13:30:32.679Z,256
2019-03-13T13:31:32.714Z,222
2019-03-13T13:32:32.641Z,182
2019-03-13T13:33:32.719Z,204
2019-03-13T13:34:32.712Z,207
2019-03-13T13:35:32.642Z,174
2019-03-13T13:36:32.709Z,135
2019-03-13T13:37:32.705Z,135
2019-03-13T13:38:32.664Z,153
2019-03-13T13:39:32.717Z,137
2019-03-13T13:40:32.726Z,117
2019-03-13T13:41:32.711Z,136
2019-03-13T13:42:32.720Z,160
2019-03-13T13:43:32.648Z,180
2019-03-13T13:44:32.727Z,273
2019-03-13T13:45:33.339Z,269
2019-03-13T13:46:32.664Z,234
2019-03-13T13:47:32.651Z,235
2019-03-13T13:48:32.728Z,243
2019-03-13T13:49:32.669Z,234
2019-03-13T13:50:32.731Z,384
2019-03-13T13:51:32.993Z,396
2019-03-13T13:52:32.664Z,343
2019-03-13T13:53:32.722Z,325
2019-03-13T13:54:32.736Z,338
2019-03-13T13:55:32.726Z,353
2019-03-13T13:56:32.732Z,320
2019-03-13T13:57:32.695Z,265
2019-03-13T13:58:32.662Z,239
2019-03-13T13:59:32.730Z,233
2019-03-13T14:00:32.709Z,182
2019-03-13T14:01:32.671Z,154
2019-03-13T14:02:32.601Z,159
2019-03-13T14:03:32.593Z,155
2019-03-13T14:04:32.713Z,149
2019-03-13T14:05:32.597Z,153
2019-03-13T14:06:32.634Z,143
2019-03-13T14:07:32.620Z,133
2019-03-13T14:08:32.605Z,109
2019-03-13T14:09:32.728Z,92
2019-03-13T14:10:32.666Z,91
2019-03-13T14:11:32.669Z,81
2019-03-13T14:12:32.735Z,64
2019-03-13T14:13:32.629Z,56
2019-03-13T14:14:32.670Z,53
2019-03-13T14:15:32.736Z,56
2019-03-13T14:16:32.745Z,56
2019-03-13T14:17:32.744Z,54